KMEV/MEV METAR and TAF weather

Enter ICAO airport designator
Station Type Date Time Source
KMEV METAR 2019/04/20 22:35 UTC NOAA

KMEV 202235Z AUTO 28014G20KT 10SM FEW060 SCT070 BKN085 17/01 A2986 RMK AO2


Station Type Date Time Source
KMEV Decoded METAR 2019/04/20 22:35 UTC NOAA

Station name not available
Apr 20, 2019 - 06:35 PM EDT / 2019.04.20 2235 UTC
Wind: from the W (280 degrees) at 16 MPH (14 KT) gusting to 23 MPH (20 KT):0
Visibility: 10 mile(s):0
Sky conditions: mostly cloudy
Temperature: 62 F (17 C)
Dew Point: 33 F (1 C)
Relative Humidity: 33%
Pressure (altimeter): 29.86 in. Hg (1011 hPa)
ob: KMEV 202235Z AUTO 28014G20KT 10SM FEW060 SCT070 BKN085 17/01 A2986 RMK AO2
cycle: 22

Station Type Date Time Source
KMEV TAF UTC NOAA

Error!

Example: see airport list